Time;durP1;ratioP1;P1;durP2;ratioP2;P2;SDS_P1;SDS_P2;PMS_P1;PMS_P2;Temp;Humidity;BMP_temperature;BMP_pressure;BME280_temperature;BME280_humidity;BME280_pressure;Samples;Min_cycle;Max_cycle;Signal;HPM_P1;HPM_P2
2023/05/18 00:00:15;;;;;;;0.00;0.00;;;;;;;10.23;100.00;102842.75;10435659;28;20077;-80
2023/05/18 00:05:17;;;;;;;0.52;0.52;;;;;;;10.06;100.00;102834.03;10435367;28;20412;-80
2023/05/18 00:10:19;;;;;;;0.08;0.08;;;;;;;10.74;100.00;102845.69;10434356;28;20045;-79
2023/05/18 00:15:21;;;;;;;0.10;0.10;;;;;;;10.82;100.00;102828.06;10425535;28;20110;-79
2023/05/18 00:20:25;;;;;;;0.00;0.00;;;;;;;10.23;100.00;102842.75;10434301;28;20045;-80
2023/05/18 00:25:29;;;;;;;0.10;0.08;;;;;;;10.78;100.00;102839.91;10423076;28;20049;-80
2023/05/18 00:30:31;;;;;;;0.43;0.10;;;;;;;10.13;100.00;102846.47;10456619;28;20381;-81
2023/05/18 00:35:32;;;;;;;0.00;0.00;;;;;;;10.48;100.00;102842.50;10438736;28;20407;-79
2023/05/18 00:40:34;;;;;;;0.00;0.00;;;;;;;9.82;100.00;102847.22;10442039;28;20084;-80
2023/05/18 00:45:36;;;;;;;0.10;0.10;;;;;;;10.58;100.00;102841.34;10425980;28;20411;-79
2023/05/18 00:50:39;;;;;;;0.00;0.00;;;;;;;10.50;100.00;102841.72;10441333;28;20041;-79
2023/05/18 00:55:41;;;;;;;0.00;0.00;;;;;;;9.52;100.00;102848.81;10429101;28;20044;-80
2023/05/18 01:00:43;;;;;;;0.00;0.00;;;;;;;9.63;100.00;102852.06;10441627;28;20051;-79
2023/05/18 01:05:48;;;;;;;0.40;0.40;;;;;;;9.55;100.00;102849.00;10440532;28;20053;-80
2023/05/18 01:10:55;;;;;;;0.52;0.30;;;;;;;9.33;100.00;102851.94;10440843;28;20055;-79
2023/05/18 01:16:00;;;;;;;0.05;0.05;;;;;;;9.36;100.00;102862.41;10458695;28;20095;-79
2023/05/18 01:21:45;;;;;;;0.05;0.05;;;;;;;9.47;100.00;102851.13;10448533;28;20443;-79
2023/05/18 01:26:49;;;;;;;0.05;0.05;;;;;;;9.41;100.00;102853.31;10430963;28;20420;-80
2023/05/18 01:31:51;;;;;;;0.00;0.00;;;;;;;9.24;100.00;102857.38;10440043;28;20123;-79
2023/05/18 01:36:53;;;;;;;0.15;0.15;;;;;;;9.02;100.00;102860.28;10436993;28;20135;-79
2023/05/18 01:42:02;;;;;;;0.00;0.00;;;;;;;8.89;100.00;102864.66;10424979;28;20136;-80
2023/05/18 01:47:12;;;;;;;0.03;0.03;;;;;;;8.91;100.00;102868.97;10422642;28;20095;-79
2023/05/18 01:52:26;;;;;;;0.08;0.08;;;;;;;8.98;100.00;102863.44;10431909;28;20486;-80
2023/05/18 01:57:31;;;;;;;0.05;0.05;;;;;;;8.84;100.00;102867.72;10439605;28;20064;-80
2023/05/18 02:02:33;;;;;;;0.40;0.25;;;;;;;8.93;100.00;102864.84;10439385;28;20045;-80
2023/05/18 02:07:38;;;;;;;0.00;0.00;;;;;;;8.71;100.00;102859.19;10442352;28;20056;-79
2023/05/18 02:12:40;;;;;;;0.17;0.10;;;;;;;8.53;100.00;102863.16;10433732;28;20041;-80
2023/05/18 02:17:43;;;;;;;0.25;0.25;;;;;;;8.43;100.00;102869.31;10432636;28;20404;-80
2023/05/18 02:22:46;;;;;;;0.35;0.22;;;;;;;8.51;100.00;102869.84;10455752;28;20447;-80
2023/05/18 02:27:48;;;;;;;0.13;0.13;;;;;;;8.52;100.00;102867.41;10438129;28;20041;-81
2023/05/18 02:32:50;;;;;;;0.00;0.00;;;;;;;8.56;100.00;102858.22;10451051;28;20435;-80
2023/05/18 02:37:52;;;;;;;0.20;0.20;;;;;;;8.46;100.00;102864.38;10430355;28;20493;-80
2023/05/18 02:42:54;;;;;;;0.00;0.00;;;;;;;9.30;100.00;102862.94;10432049;28;20132;-79
2023/05/18 02:47:58;;;;;;;0.10;0.10;;;;;;;8.79;100.00;102864.84;10435654;28;20093;-79
2023/05/18 02:53:00;;;;;;;0.05;0.05;;;;;;;8.95;100.00;102861.56;10436701;28;20057;-79
2023/05/18 02:58:02;;;;;;;0.00;0.00;;;;;;;9.13;100.00;102855.84;10436677;28;20029;-78
2023/05/18 03:03:24;;;;;;;0.00;0.00;;;;;;;9.18;100.00;102862.16;10417151;28;20048;-80
2023/05/18 03:08:27;;;;;;;0.03;0.03;;;;;;;8.51;100.00;102865.63;10435103;28;20568;-79
2023/05/18 03:13:30;;;;;;;0.00;0.00;;;;;;;8.38;100.00;102871.59;10420523;28;20049;-79
2023/05/18 03:18:33;;;;;;;0.00;0.00;;;;;;;8.26;100.00;102869.09;10432567;28;20036;-79
2023/05/18 03:23:35;;;;;;;0.10;0.10;;;;;;;8.28;100.00;102865.72;10435720;28;20047;-80
2023/05/18 03:28:37;;;;;;;0.13;0.13;;;;;;;8.45;100.00;102869.41;10431628;28;20037;-80
2023/05/18 03:33:39;;;;;;;0.10;0.10;;;;;;;8.32;100.00;102868.63;10435678;28;20049;-80
2023/05/18 03:38:44;;;;;;;0.38;0.38;;;;;;;8.25;100.00;102862.16;10452646;28;20037;-80
2023/05/18 03:43:46;;;;;;;0.90;0.43;;;;;;;8.26;100.00;102869.09;10435919;28;20041;-80
2023/05/18 03:48:48;;;;;;;0.35;0.20;;;;;;;8.61;100.00;102861.06;10419141;28;20047;-80
2023/05/18 03:53:54;;;;;;;0.10;0.10;;;;;;;8.65;100.00;102860.50;10435387;28;20059;-81
2023/05/18 03:58:57;;;;;;;0.70;0.45;;;;;;;8.76;100.00;102864.63;10436919;28;20044;-81
2023/05/18 04:03:59;;;;;;;0.08;0.08;;;;;;;8.56;100.00;102873.63;10441441;28;20136;-80
2023/05/18 04:09:03;;;;;;;0.00;0.00;;;;;;;8.77;100.00;102862.97;10448581;28;20049;-80
2023/05/18 04:14:10;;;;;;;0.45;0.38;;;;;;;8.70;100.00;102865.16;10425873;28;20574;-80
2023/05/18 04:19:39;;;;;;;;;;;;;;;;;;;;;
2023/05/18 04:25:26;;;;;;;0.32;0.20;;;;;;;9.14;100.00;102870.47;10454897;28;20076;-81
2023/05/18 04:30:51;;;;;;;0.00;0.00;;;;;;;9.23;100.00;102880.44;10429542;28;20049;-80
2023/05/18 04:36:03;;;;;;;0.00;0.00;;;;;;;9.29;100.00;102888.53;10441008;28;20748;-80
2023/05/18 04:41:19;;;;;;;8.13;0.40;;;;;;;9.61;100.00;102894.81;10438754;28;20044;-81
2023/05/18 04:46:21;;;;;;;0.05;0.05;;;;;;;9.53;100.00;102892.66;10440096;28;20052;-79
2023/05/18 04:51:25;;;;;;;0.17;0.17;;;;;;;9.58;100.00;102898.09;10420626;28;20124;-79
2023/05/18 04:56:26;;;;;;;0.45;0.20;;;;;;;9.51;100.00;102904.53;10440165;28;20576;-80
2023/05/18 05:01:29;;;;;;;0.00;0.00;;;;;;;9.94;100.00;102908.00;10442515;28;20496;-80
2023/05/18 05:06:33;;;;;;;0.00;0.00;;;;;;;10.23;100.00;102899.41;10441848;28;20056;-80
2023/05/18 05:11:36;;;;;;;0.20;0.20;;;;;;;10.37;100.00;102902.84;10424403;28;20125;-80
2023/05/18 05:16:38;;;;;;;0.15;0.15;;;;;;;10.46;100.00;102907.66;10439895;28;20071;-81
2023/05/18 05:21:40;;;;;;;0.30;0.30;;;;;;;10.30;100.00;102916.13;10442837;28;20144;-81
2023/05/18 05:26:42;;;;;;;0.03;0.03;;;;;;;10.62;100.00;102915.47;10435642;28;20071;-81
2023/05/18 05:31:43;;;;;;;0.30;0.20;;;;;;;10.72;100.00;102911.75;10447040;28;20045;-80
2023/05/18 05:36:45;;;;;;;0.20;0.20;;;;;;;11.03;100.00;102905.75;10444977;28;20044;-81
2023/05/18 05:41:47;;;;;;;0.03;0.03;;;;;;;11.36;100.00;102905.81;10426870;28;20047;-80
2023/05/18 05:46:50;;;;;;;0.00;0.00;;;;;;;11.14;100.00;102905.44;10444884;28;20049;-80
2023/05/18 05:51:52;;;;;;;0.00;0.00;;;;;;;11.98;100.00;102909.16;10439943;28;20522;-79
2023/05/18 05:56:54;;;;;;;0.57;0.30;;;;;;;12.11;100.00;102912.38;10433182;28;20083;-80
2023/05/18 06:01:56;;;;;;;0.00;0.00;;;;;;;12.16;100.00;102908.34;10448921;28;20076;-79
2023/05/18 06:06:59;;;;;;;0.30;0.25;;;;;;;12.46;100.00;102903.84;10450554;28;20045;-79
2023/05/18 06:12:03;;;;;;;0.03;0.03;;;;;;;12.40;100.00;102898.38;10469374;28;20036;-79
2023/05/18 06:17:05;;;;;;;0.82;0.82;;;;;;;12.48;100.00;102898.72;10475052;28;20047;-80
2023/05/18 06:22:07;;;;;;;0.17;0.13;;;;;;;12.62;100.00;102904.59;10454551;28;20072;-78
2023/05/18 06:27:18;;;;;;;0.10;0.10;;;;;;;12.65;100.00;102908.22;10438332;28;20048;-78
2023/05/18 06:32:44;;;;;;;1.17;0.50;;;;;;;12.57;100.00;102904.38;10458593;28;20041;-78
2023/05/18 06:37:46;;;;;;;0.43;0.22;;;;;;;13.18;100.00;102903.00;10440866;28;20052;-80
2023/05/18 06:42:47;;;;;;;0.47;0.20;;;;;;;12.64;100.00;102911.63;10442700;28;20049;-78
2023/05/18 06:48:05;;;;;;;25.65;0.77;;;;;;;13.35;100.00;102910.66;10441479;28;20396;-80
2023/05/18 06:53:10;;;;;;;0.30;0.20;;;;;;;13.93;100.00;102913.34;10426822;28;20053;-79
2023/05/18 06:58:12;;;;;;;0.40;0.40;;;;;;;13.84;100.00;102905.16;10425733;28;20045;-80
2023/05/18 07:03:14;;;;;;;0.30;0.30;;;;;;;14.51;98.74;102911.47;10436172;28;20045;-79
2023/05/18 07:08:16;;;;;;;0.10;0.00;;;;;;;14.38;96.78;102916.97;10432543;28;20049;-79
2023/05/18 07:13:18;;;;;;;0.08;0.08;;;;;;;15.17;92.53;102910.69;10446403;28;20049;-80
2023/05/18 07:18:20;;;;;;;0.93;0.30;;;;;;;15.17;89.71;102925.38;10452714;28;20053;-78
2023/05/18 07:23:22;;;;;;;4.43;0.52;;;;;;;15.61;91.41;102920.09;10430606;28;20056;-80
2023/05/18 07:28:23;;;;;;;0.55;0.30;;;;;;;16.00;92.15;102922.44;10469750;28;20404;-80
2023/05/18 07:33:25;;;;;;;0.22;0.10;;;;;;;16.27;90.29;102911.25;10445074;28;20373;-78
2023/05/18 07:38:30;;;;;;;0.20;0.08;;;;;;;15.90;90.25;102930.75;10448212;28;20049;-79
2023/05/18 07:43:31;;;;;;;0.77;0.45;;;;;;;15.08;89.77;102925.88;10424568;28;20131;-79
2023/05/18 07:48:33;;;;;;;0.00;0.00;;;;;;;17.04;85.71;102915.50;10439173;28;20034;-79
2023/05/18 07:53:36;;;;;;;0.10;0.10;;;;;;;15.78;85.99;102921.63;10438877;28;20507;-78
2023/05/18 07:58:39;;;;;;;0.00;0.00;;;;;;;17.41;84.84;102922.72;10456653;28;20051;-79
2023/05/18 08:03:41;;;;;;;0.20;0.13;;;;;;;16.73;89.08;102925.78;10453232;28;20052;-79
2023/05/18 08:08:43;;;;;;;0.10;0.10;;;;;;;17.26;80.68;102937.88;10435719;28;20055;-79
2023/05/18 08:13:45;;;;;;;0.13;0.13;;;;;;;17.13;77.66;102936.59;10438560;28;20124;-78
2023/05/18 08:18:46;;;;;;;0.17;0.10;;;;;;;16.06;86.23;102946.03;10454036;28;20065;-79
2023/05/18 08:23:48;;;;;;;0.60;0.35;;;;;;;17.00;86.11;102937.97;10430163;28;20052;-79
2023/05/18 08:28:50;;;;;;;0.00;0.00;;;;;;;16.07;88.27;102942.63;10432846;28;20052;-80
2023/05/18 08:33:51;;;;;;;0.00;0.00;;;;;;;16.77;84.81;102935.47;10421013;28;20176;-79
2023/05/18 08:38:53;;;;;;;0.40;0.10;;;;;;;15.38;85.17;102951.28;10425747;28;20128;-79
2023/05/18 08:44:02;;;;;;;0.75;0.45;;;;;;;16.36;81.23;102932.34;10449212;28;20048;-78
2023/05/18 08:49:05;;;;;;;0.43;0.40;;;;;;;16.91;82.84;102917.66;10443940;28;20469;-80
2023/05/18 08:54:08;;;;;;;0.17;0.13;;;;;;;15.23;82.94;102938.59;10431352;28;20045;-79
2023/05/18 08:59:11;;;;;;;0.13;0.13;;;;;;;15.74;82.53;102937.94;10444086;28;20041;-79
2023/05/18 09:04:13;;;;;;;0.75;0.45;;;;;;;17.83;78.66;102907.41;10423765;28;20040;-79
2023/05/18 09:09:17;;;;;;;0.20;0.10;;;;;;;17.71;77.42;102919.22;10443329;28;20108;-79
2023/05/18 09:14:18;;;;;;;0.00;0.00;;;;;;;18.04;80.09;102915.84;10438839;28;20041;-78
2023/05/18 09:19:23;;;;;;;0.38;0.38;;;;;;;16.20;83.90;102912.75;10428573;28;20049;-79
2023/05/18 09:24:25;;;;;;;0.00;0.00;;;;;;;17.72;77.81;102902.75;10442389;28;20136;-78
2023/05/18 09:29:27;;;;;;;1.00;0.52;;;;;;;19.08;77.44;102886.19;10442042;28;20377;-77
2023/05/18 09:34:40;;;;;;;1.25;0.55;;;;;;;18.74;75.38;102890.59;10459143;28;20451;-78
2023/05/18 09:39:42;;;;;;;0.40;0.35;;;;;;;17.70;74.52;102893.13;10427111;28;20045;-79
2023/05/18 09:44:45;;;;;;;0.80;0.30;;;;;;;19.88;73.13;102881.75;10442247;28;20049;-78
2023/05/18 09:49:47;;;;;;;0.17;0.17;;;;;;;18.40;75.35;102885.41;10434247;28;20484;-77
2023/05/18 09:54:58;;;;;;;0.40;0.20;;;;;;;17.07;79.87;102892.16;10441275;28;20053;-80
2023/05/18 10:00:09;;;;;;;0.10;0.10;;;;;;;17.96;79.89;102883.44;10424466;28;20052;-78
2023/05/18 10:05:19;;;;;;;0.00;0.00;;;;;;;17.24;77.16;102877.94;10440809;28;20083;-80
2023/05/18 10:10:22;;;;;;;0.20;0.10;;;;;;;17.30;79.54;102879.84;10436772;28;20041;-79
2023/05/18 10:15:25;;;;;;;0.30;0.20;;;;;;;17.51;74.63;102881.28;10423859;28;20059;-80
2023/05/18 10:20:26;;;;;;;0.38;0.38;;;;;;;19.70;67.77;102858.66;10430428;28;20060;-78
2023/05/18 10:25:28;;;;;;;0.25;0.05;;;;;;;19.84;73.72;102858.94;10436101;28;20065;-80
2023/05/18 10:30:31;;;;;;;0.35;0.10;;;;;;;20.37;71.07;102850.28;10424099;28;20057;-77
2023/05/18 10:35:36;;;;;;;2.30;0.20;;;;;;;19.62;72.28;102859.41;10457420;28;20045;-79
2023/05/18 10:40:42;;;;;;;0.80;0.52;;;;;;;20.55;72.17;102845.34;10438641;28;20048;-80
2023/05/18 10:45:47;;;;;;;0.15;0.15;;;;;;;20.72;69.09;102847.34;10442886;28;20045;-80
2023/05/18 10:50:51;;;;;;;0.32;0.22;;;;;;;19.61;62.22;102852.44;10419823;28;20047;-78
2023/05/18 10:55:53;;;;;;;0.70;0.65;;;;;;;20.60;71.70;102843.66;10454721;28;20037;-79
2023/05/18 11:00:57;;;;;;;0.10;0.10;;;;;;;20.57;69.15;102846.25;10420405;28;20049;-80
2023/05/18 11:06:09;;;;;;;0.38;0.25;;;;;;;19.02;70.32;102846.00;10436171;28;20052;-80
2023/05/18 11:11:11;;;;;;;0.00;0.00;;;;;;;19.95;68.97;102831.28;10446520;28;20056;-79
2023/05/18 11:16:15;;;;;;;0.20;0.20;;;;;;;20.58;69.12;102829.69;10436927;28;20041;-78
2023/05/18 11:21:34;;;;;;;0.30;0.30;;;;;;;18.18;67.68;102829.22;10436284;28;20064;-77
2023/05/18 11:26:39;;;;;;;0.75;0.38;;;;;;;21.19;66.25;102826.16;10453944;28;20048;-80
2023/05/18 11:31:52;;;;;;;3.85;0.38;;;;;;;21.58;62.36;102804.75;10433452;28;20044;-81
2023/05/18 11:36:55;;;;;;;0.22;0.17;;;;;;;20.39;66.25;102811.94;10438168;28;20056;-80
2023/05/18 11:42:04;;;;;;;1.00;0.55;;;;;;;18.79;68.75;102821.97;10429037;28;20041;-80
2023/05/18 11:47:09;;;;;;;0.33;0.27;;;;;;;19.74;65.20;102821.28;10429320;28;20041;-80
2023/05/18 11:52:20;;;;;;;4.30;1.20;;;;;;;19.70;66.62;102814.22;10437003;28;20488;-79
2023/05/18 11:57:22;;;;;;;0.20;0.20;;;;;;;20.41;74.60;102810.22;10435691;28;20045;-80
2023/05/18 12:02:26;;;;;;;0.45;0.20;;;;;;;21.59;65.80;102803.91;10458395;28;20139;-80
2023/05/18 12:07:30;;;;;;;0.45;0.20;;;;;;;20.82;62.80;102793.38;10439784;28;20124;-79
2023/05/18 12:12:33;;;;;;;0.93;0.73;;;;;;;21.31;59.77;102785.22;10459043;28;20047;-79
2023/05/18 12:17:39;;;;;;;2.05;0.47;;;;;;;21.11;63.79;102785.84;10463279;28;20461;-79
2023/05/18 12:22:50;;;;;;;0.15;0.15;;;;;;;20.51;62.32;102775.47;10463248;28;20527;-79
2023/05/18 12:27:54;;;;;;;0.10;0.10;;;;;;;21.08;60.16;102778.84;10464955;28;20472;-79
2023/05/18 12:32:56;;;;;;;0.40;0.20;;;;;;;20.54;62.86;102780.75;10475654;28;20502;-79
2023/05/18 12:38:00;;;;;;;1.17;0.52;;;;;;;21.82;60.41;102752.53;10447390;28;20049;-79
2023/05/18 12:43:03;;;;;;;0.13;0.10;;;;;;;21.30;63.72;102757.25;10451189;28;20076;-80
2023/05/18 12:48:06;;;;;;;1.60;0.63;;;;;;;21.58;60.84;102762.78;10444665;28;20493;-82
2023/05/18 12:53:08;;;;;;;0.20;0.15;;;;;;;21.98;56.05;102753.53;10441247;28;20052;-82
2023/05/18 12:58:15;;;;;;;0.00;0.00;;;;;;;22.64;60.23;102762.72;10459717;28;20045;-81
2023/05/18 13:03:20;;;;;;;0.40;0.40;;;;;;;20.77;62.00;102756.63;10441971;28;20103;-82
2023/05/18 13:08:23;;;;;;;0.10;0.10;;;;;;;19.46;57.48;102758.03;10435411;28;20564;-81
2023/05/18 13:13:28;;;;;;;0.55;0.32;;;;;;;19.86;64.18;102752.66;10434811;28;20048;-82
2023/05/18 13:18:30;;;;;;;0.10;0.10;;;;;;;20.62;54.91;102741.59;10440671;28;20049;-82
2023/05/18 13:23:32;;;;;;;1.13;0.50;;;;;;;19.82;60.61;102751.69;10439221;28;20504;-80
2023/05/18 13:28:36;;;;;;;0.73;0.30;;;;;;;20.45;58.50;102743.94;10437565;28;20128;-80
2023/05/18 13:33:38;;;;;;;0.38;0.28;;;;;;;20.55;67.41;102740.63;10423668;28;20037;-80
2023/05/18 13:38:40;;;;;;;24.27;0.57;;;;;;;20.07;59.75;102736.41;10458799;28;20044;-80
2023/05/18 13:43:41;;;;;;;0.17;0.17;;;;;;;20.23;62.23;102733.16;10454236;28;20053;-81
2023/05/18 13:48:43;;;;;;;0.52;0.35;;;;;;;21.54;64.75;102715.56;10440064;28;20396;-81
2023/05/18 13:53:45;;;;;;;0.55;0.20;;;;;;;20.80;59.31;102716.50;10438198;28;20045;-80
2023/05/18 13:58:46;;;;;;;1.58;1.15;;;;;;;21.56;57.78;102703.31;10440195;28;20041;-81
2023/05/18 14:03:48;;;;;;;0.47;0.40;;;;;;;21.52;61.19;102706.78;10449974;28;20107;-80
2023/05/18 14:08:49;;;;;;;2.85;2.08;;;;;;;20.52;59.18;102696.03;10440743;28;20072;-80
2023/05/18 14:13:51;;;;;;;0.82;0.30;;;;;;;20.63;62.32;102697.94;10440167;28;20400;-80
2023/05/18 14:18:52;;;;;;;1.02;0.32;;;;;;;21.44;59.64;102687.47;10438458;28;20045;-82
2023/05/18 14:23:54;;;;;;;0.10;0.10;;;;;;;20.96;58.49;102689.63;10438214;28;20901;-81
2023/05/18 14:28:56;;;;;;;0.77;0.20;;;;;;;21.62;55.73;102675.44;10435792;28;20730;-81
2023/05/18 14:33:57;;;;;;;0.03;0.03;;;;;;;21.44;56.13;102681.38;10442059;28;20049;-81
2023/05/18 14:38:59;;;;;;;0.47;0.47;;;;;;;22.15;55.32;102664.38;10424887;28;20052;-81
2023/05/18 14:44:07;;;;;;;2.05;0.55;;;;;;;21.14;58.41;102660.09;10420380;28;20734;-79
2023/05/18 14:49:09;;;;;;;0.10;0.00;;;;;;;21.00;59.95;102673.06;10453517;28;20123;-80
2023/05/18 14:54:13;;;;;;;0.10;0.10;;;;;;;20.43;56.89;102675.00;10432856;28;20049;-81
2023/05/18 14:59:15;;;;;;;0.28;0.10;;;;;;;21.40;57.06;102680.47;10443683;28;20056;-80
2023/05/18 15:04:16;;;;;;;0.77;0.45;;;;;;;21.39;56.67;102673.47;10450507;28;20045;-81
2023/05/18 15:09:18;;;;;;;0.20;0.20;;;;;;;21.63;56.75;102666.69;10453266;28;20079;-82
2023/05/18 15:14:24;;;;;;;0.10;0.00;;;;;;;21.78;57.26;102660.66;10429166;28;20123;-81
2023/05/18 15:19:26;;;;;;;0.10;0.10;;;;;;;22.06;56.23;102650.34;10450466;28;20471;-82
2023/05/18 15:24:27;;;;;;;0.45;0.38;;;;;;;20.94;54.75;102659.91;10405601;28;20407;-81
2023/05/18 15:29:29;;;;;;;0.05;0.05;;;;;;;21.69;57.30;102651.88;10428764;28;20128;-81
2023/05/18 15:34:32;;;;;;;1.00;0.52;;;;;;;22.39;58.36;102657.53;10422214;28;20570;-79
2023/05/18 15:39:36;;;;;;;1.10;0.20;;;;;;;21.85;58.66;102658.13;10434026;28;20073;-80
2023/05/18 15:44:38;;;;;;;0.77;0.40;;;;;;;21.99;57.21;102647.69;10452978;28;20037;-77
2023/05/18 15:49:39;;;;;;;0.00;0.00;;;;;;;21.52;54.14;102643.84;10442061;28;20051;-79
2023/05/18 15:54:41;;;;;;;0.00;0.00;;;;;;;20.83;55.15;102644.06;10438917;28;20041;-79
2023/05/18 15:59:43;;;;;;;0.20;0.20;;;;;;;21.05;55.23;102644.28;10440572;28;20048;-78
2023/05/18 16:04:44;;;;;;;0.30;0.20;;;;;;;22.22;55.84;102630.31;10434462;28;20059;-79
2023/05/18 16:09:47;;;;;;;0.77;0.20;;;;;;;20.80;52.72;102641.44;10443013;28;20049;-78
2023/05/18 16:14:49;;;;;;;0.57;0.22;;;;;;;21.16;54.14;102628.66;10446667;28;20053;-78
2023/05/18 16:19:50;;;;;;;0.22;0.03;;;;;;;20.70;56.93;102626.44;10416203;28;20045;-76
2023/05/18 16:24:53;;;;;;;0.40;0.20;;;;;;;21.18;54.86;102630.47;10454755;28;20045;-77
2023/05/18 16:29:55;;;;;;;0.52;0.15;;;;;;;20.97;57.62;102622.38;10450996;28;20111;-77
2023/05/18 16:34:56;;;;;;;0.08;0.08;;;;;;;20.99;54.56;102615.41;10455264;28;20052;-79
2023/05/18 16:39:58;;;;;;;0.93;0.32;;;;;;;21.20;58.54;102623.47;10436346;28;20049;-78
2023/05/18 16:45:00;;;;;;;0.10;0.10;;;;;;;21.23;59.64;102620.91;10433083;28;20166;-77
2023/05/18 16:50:01;;;;;;;0.90;0.52;;;;;;;20.76;58.59;102613.44;10422385;28;20044;-79
2023/05/18 16:55:03;;;;;;;0.00;0.00;;;;;;;21.18;58.06;102624.31;10457699;28;20095;-79
2023/05/18 17:00:08;;;;;;;0.57;0.03;;;;;;;20.24;56.89;102624.16;10429514;28;20048;-78
2023/05/18 17:05:10;;;;;;;0.10;0.10;;;;;;;19.78;56.06;102629.56;10427190;28;20128;-77
2023/05/18 17:10:12;;;;;;;0.05;0.05;;;;;;;20.13;56.27;102626.63;10443033;28;20049;-78
2023/05/18 17:15:13;;;;;;;0.52;0.32;;;;;;;20.42;58.96;102624.38;10456774;28;20053;-79
2023/05/18 17:20:15;;;;;;;0.00;0.00;;;;;;;20.27;60.28;102619.84;10430810;28;20045;-78
2023/05/18 17:25:17;;;;;;;0.30;0.05;;;;;;;20.28;58.74;102620.69;10438002;28;20077;-79
2023/05/18 17:30:18;;;;;;;1.40;0.17;;;;;;;20.58;57.98;102614.97;10435315;28;20369;-78
2023/05/18 17:35:20;;;;;;;0.17;0.17;;;;;;;20.09;58.89;102616.97;10432629;28;20045;-79
2023/05/18 17:40:22;;;;;;;0.47;0.28;;;;;;;19.81;58.06;102616.56;10425511;28;20059;-78
2023/05/18 17:45:24;;;;;;;0.10;0.10;;;;;;;19.24;59.14;102619.16;10440302;28;20508;-78
2023/05/18 17:50:25;;;;;;;1.65;1.00;;;;;;;19.44;60.60;102608.13;10437193;28;20045;-78
2023/05/18 17:55:27;;;;;;;0.22;0.20;;;;;;;19.33;61.75;102615.81;10457470;28;20041;-78
2023/05/18 18:00:28;;;;;;;0.20;0.20;;;;;;;18.90;61.87;102615.88;10437605;28;20049;-78
2023/05/18 18:05:30;;;;;;;0.13;0.03;;;;;;;18.74;60.37;102613.81;10422224;28;20978;-78
2023/05/18 18:10:35;;;;;;;0.20;0.10;;;;;;;18.79;61.76;102618.28;10442183;28;20037;-77
2023/05/18 18:15:36;;;;;;;0.55;0.30;;;;;;;18.65;61.09;102620.63;10452808;28;20064;-77
2023/05/18 18:20:38;;;;;;;0.13;0.10;;;;;;;18.51;61.69;102622.97;10433359;28;20066;-77
2023/05/18 18:25:40;;;;;;;0.10;0.10;;;;;;;18.20;63.01;102618.84;10439893;28;20045;-77
2023/05/18 18:30:42;;;;;;;0.00;0.00;;;;;;;18.10;64.51;102616.88;10446435;28;20033;-79
2023/05/18 18:35:45;;;;;;;0.63;0.55;;;;;;;18.05;66.14;102625.50;10433831;28;20057;-78
2023/05/18 18:40:47;;;;;;;1.48;1.00;;;;;;;17.88;68.62;102629.41;10436730;28;20708;-77
2023/05/18 18:45:48;;;;;;;0.43;0.40;;;;;;;18.10;70.75;102635.13;10431628;28;20044;-78
2023/05/18 18:50:51;;;;;;;0.32;0.20;;;;;;;17.87;71.90;102638.06;10423649;28;20120;-77
2023/05/18 18:55:53;;;;;;;1.40;0.75;;;;;;;17.68;73.84;102634.16;10436260;28;20052;-78
2023/05/18 19:00:54;;;;;;;2.55;0.82;;;;;;;17.59;73.28;102637.41;10436919;28;20052;-77
2023/05/18 19:05:56;;;;;;;0.47;0.28;;;;;;;17.43;74.37;102639.66;10436409;28;20049;-77
2023/05/18 19:10:58;;;;;;;0.68;0.30;;;;;;;17.43;75.69;102637.03;10433402;28;20044;-77
2023/05/18 19:16:00;;;;;;;0.25;0.10;;;;;;;17.16;74.81;102646.75;10435719;28;20059;-77
2023/05/18 19:21:02;;;;;;;0.20;0.20;;;;;;;16.97;76.49;102648.84;10438216;28;20041;-77
2023/05/18 19:26:04;;;;;;;0.10;0.10;;;;;;;17.11;76.20;102660.53;10438786;28;20040;-77
2023/05/18 19:31:08;;;;;;;0.80;0.22;;;;;;;16.80;79.10;102651.81;10421805;28;20045;-77
2023/05/18 19:36:12;;;;;;;0.10;0.10;;;;;;;16.47;76.48;102655.25;10427867;28;20167;-77
2023/05/18 19:41:14;;;;;;;0.10;0.10;;;;;;;16.42;77.65;102664.59;10429570;28;20055;-77
2023/05/18 19:46:15;;;;;;;0.03;0.03;;;;;;;16.43;78.52;102673.31;10453755;28;20068;-77
2023/05/18 19:51:17;;;;;;;0.25;0.25;;;;;;;16.50;78.61;102673.53;10434768;28;20102;-77
2023/05/18 19:56:21;;;;;;;0.30;0.30;;;;;;;16.04;82.31;102679.94;10434466;28;20053;-77
2023/05/18 20:01:23;;;;;;;0.43;0.32;;;;;;;15.85;81.41;102679.34;10452121;28;20574;-77
2023/05/18 20:06:28;;;;;;;0.40;0.17;;;;;;;15.91;83.90;102675.16;10445222;28;20045;-77
2023/05/18 20:11:30;;;;;;;1.45;0.40;;;;;;;15.75;85.50;102677.22;10413299;28;20045;-77
2023/05/18 20:16:33;;;;;;;0.15;0.10;;;;;;;15.63;87.16;102676.84;10452903;28;20060;-77
2023/05/18 20:21:34;;;;;;;0.00;0.00;;;;;;;15.36;87.96;102675.94;10434100;28;20033;-77
2023/05/18 20:26:36;;;;;;;0.38;0.30;;;;;;;15.36;89.08;102680.28;10447552;28;20041;-78
2023/05/18 20:31:38;;;;;;;0.20;0.20;;;;;;;15.42;89.11;102680.47;10427676;28;20045;-79
2023/05/18 20:36:40;;;;;;;0.43;0.38;;;;;;;15.34;87.46;102677.59;10430763;28;20459;-80
2023/05/18 20:41:41;;;;;;;0.30;0.10;;;;;;;15.44;86.67;102681.41;10429077;28;20133;-80
2023/05/18 20:46:43;;;;;;;0.52;0.40;;;;;;;15.43;86.35;102684.84;10435867;28;20045;-80
2023/05/18 20:51:45;;;;;;;0.22;0.13;;;;;;;15.13;88.85;102687.22;10439489;28;20415;-80
2023/05/18 20:56:47;;;;;;;0.30;0.30;;;;;;;14.99;93.33;102702.34;10441036;28;20052;-80
2023/05/18 21:01:49;;;;;;;0.22;0.20;;;;;;;14.79;94.00;102710.25;10459693;28;20055;-80
2023/05/18 21:06:51;;;;;;;0.32;0.20;;;;;;;14.43;95.24;102710.59;10441850;28;20049;-80
2023/05/18 21:11:53;;;;;;;0.45;0.45;;;;;;;14.45;97.48;102711.53;10421371;28;20065;-79
2023/05/18 21:16:55;;;;;;;0.10;0.10;;;;;;;14.31;100.00;102715.28;10426740;28;20427;-79
2023/05/18 21:21:57;;;;;;;0.30;0.30;;;;;;;14.24;100.00;102711.56;10440022;28;20048;-79
2023/05/18 21:26:59;;;;;;;0.05;0.05;;;;;;;14.99;94.29;102704.94;10442706;28;20051;-79
2023/05/18 21:32:01;;;;;;;0.10;0.10;;;;;;;14.14;100.00;102707.72;10450742;28;20048;-79
2023/05/18 21:37:03;;;;;;;0.30;0.10;;;;;;;14.06;100.00;102712.63;10431546;28;20069;-79
2023/05/18 21:42:05;;;;;;;0.10;0.10;;;;;;;13.85;100.00;102709.16;10439817;28;20049;-80
2023/05/18 21:47:06;;;;;;;0.25;0.15;;;;;;;13.59;100.00;102709.81;10435360;28;20567;-79
2023/05/18 21:52:11;;;;;;;0.08;0.08;;;;;;;13.57;100.00;102708.88;10447375;28;20045;-79
2023/05/18 21:57:12;;;;;;;0.40;0.40;;;;;;;13.66;100.00;102712.69;10435353;28;20053;-79
2023/05/18 22:02:14;;;;;;;0.30;0.22;;;;;;;13.67;100.00;102704.06;10435338;28;20041;-80
2023/05/18 22:07:16;;;;;;;0.13;0.13;;;;;;;13.40;100.00;102715.94;10420273;28;20060;-79
2023/05/18 22:12:19;;;;;;;0.70;0.30;;;;;;;13.50;100.00;102717.19;10438971;28;20057;-79
2023/05/18 22:17:21;;;;;;;0.30;0.30;;;;;;;13.51;100.00;102713.81;10430335;28;20054;-80
2023/05/18 22:22:23;;;;;;;0.95;0.50;;;;;;;13.48;100.00;102711.06;10432336;28;20053;-79
2023/05/18 22:27:29;;;;;;;0.52;0.30;;;;;;;13.27;100.00;102714.47;10431831;28;20055;-80
2023/05/18 22:32:31;;;;;;;0.40;0.13;;;;;;;13.56;100.00;102708.78;10452729;28;20048;-80
2023/05/18 22:37:33;;;;;;;0.47;0.38;;;;;;;13.50;100.00;102706.84;10430563;28;20048;-79
2023/05/18 22:42:35;;;;;;;0.73;0.60;;;;;;;13.56;100.00;102709.69;10433067;28;20064;-79
2023/05/18 22:47:38;;;;;;;0.22;0.22;;;;;;;13.61;100.00;102710.75;10434324;28;20064;-79
2023/05/18 22:52:40;;;;;;;0.45;0.20;;;;;;;13.52;100.00;102709.50;10435367;28;20166;-79
2023/05/18 22:57:43;;;;;;;0.22;0.22;;;;;;;13.85;100.00;102710.03;10447978;28;20730;-80
2023/05/18 23:02:45;;;;;;;1.65;0.43;;;;;;;13.50;100.00;102717.19;10433949;28;20144;-80
2023/05/18 23:07:48;;;;;;;0.30;0.30;;;;;;;13.52;100.00;102722.44;10436437;28;20044;-79
2023/05/18 23:12:51;;;;;;;0.32;0.32;;;;;;;13.69;100.00;102723.16;10433611;28;20132;-79